Flight Track Log - Related Links

Times and Time Zones

All times are in EDT time to prevent confusion due to time zone crossing. See the JBU1483 flight status page for this flight to view local times or setup timezone preferences in your user account.

Time Position Orientation Groundspeed Altitude Reporting Facility
EDT Latitude Longitude Course Direction KTS MPH feet Rate Location/Type
Fri 09:09:15 PM 28.4340 -81.3170 25° Northeast  Level FlightAware ADS-B
Fri 09:11:25 PM 28.4350 -81.3170 360° North 10 12 99 Level FlightAware ADS-B
Fri 09:11:50 PM 28.4350 -81.3180 270° West 10 12 126 Level FlightAware ADS-B
Fri 09:12:05 PM 28.4360 -81.3180 360° North 11 13 133 Level FlightAware ADS-B
Fri 09:12:20 PM 28.4370 -81.3180 360° North 12 14 138 Level FlightAware ADS-B
Fri 09:13:05 PM 28.4400 -81.3190 344° North 12 14 143 Level FlightAware ADS-B
Fri 09:13:25 PM 28.4410 -81.3190 360° North 14 16 160 Level FlightAware ADS-B
Fri 09:13:50 PM 28.4420 -81.3190 360° North 12 14 169 Level FlightAware ADS-B
Fri 09:14:20 PM 28.4440 -81.3190 360° North 16 18 182 Level FlightAware ADS-B
Fri 09:14:35 PM 28.4450 -81.3190 360° North 17 20 200 Level FlightAware ADS-B
Fri 09:15:00 PM 28.4470 -81.3190 360° North 7 8 211 Level FlightAware ADS-B
Fri 09:15:40 PM 28.4480 -81.3190 360° North 8 9 231 Level FlightAware ADS-B
Fri 09:15:55 PM 28.4480 -81.3200 270° West 7 8 273 Level FlightAware ADS-B
Fri 09:16:55 PM 28.4480 -81.3220 270° West 7 8 293 Level FlightAware ADS-B
Fri 09:18:55 PM 28.4290 -81.3220 139° Southeast 162 186 414 Level FlightAware ADS-B
Fri 09:19:00 PM 28.2356 -81.2468 139° Southeast  Level Estimated
Fri 09:19:20 PM 28.4080 -81.3230 182° South 161 185 1,000  Level FlightAware ADS-B
Fri 09:19:45 PM 28.3890 -81.3230 180° South 165 190 1,900 1,800 Climbing FlightAware ADS-B
Fri 09:20:00 PM 28.3780 -81.3170 154° Southeast 185 213 2,200 933 Climbing FlightAware ADS-B
Fri 09:20:30 PM 28.3560 -81.2940 137° Southeast 232 267 2,600 1,440 Climbing FlightAware ADS-B
Fri 09:20:50 PM 28.3400 -81.2760 135° Southeast 253 291 3,400 2,880 Climbing FlightAware ADS-B
Fri 09:21:20 PM 28.3150 -81.2470 134° Southeast 258 297 5,000 3,067 Climbing FlightAware ADS-B
Fri 09:21:35 PM 28.3040 -81.2310 128° Southeast 262 302 5,700 2,800 Climbing FlightAware ADS-B
Fri 09:22:05 PM 28.2930 -81.1900 107° East 273 314 7,100 2,640 Climbing FlightAware ADS-B
Fri 09:22:25 PM 28.2880 -81.1620 101° East 281 323 7,900 2,640 Climbing FlightAware ADS-B
Fri 09:22:55 PM 28.2760 -81.1180 107° East 282 325 9,300 2,240 Climbing FlightAware ADS-B
Fri 09:23:40 PM 28.2320 -81.0710 137° Southeast 307 353 10,700 1,482 Climbing FlightAware ADS-B
Fri 09:24:20 PM 28.1870 -81.0230 137° Southeast 348 400 11,400 1,835 Climbing FlightAware ADS-B
Fri 09:25:05 PM 28.1340 -80.9670 137° Southeast 348 400 13,300 2,147 Climbing FlightAware ADS-B
Fri 09:25:55 PM 28.0730 -80.9030 137° Southeast 355 409 14,800 1,867 Climbing FlightAware ADS-B
Fri 09:26:35 PM 28.0240 -80.8510 137° Southeast 362 417 16,100 1,832 Climbing FlightAware ADS-B
Fri 09:27:30 PM 27.9560 -80.7800 137° Southeast 373 429 17,700 1,706 Climbing FlightAware ADS-B
Fri 09:28:24 PM 27.8860 -80.7070 137° Southeast 375 432 19,200 1,697 Climbing FlightAware ADS-B
Fri 09:29:09 PM 27.8270 -80.6450 137° Southeast 379 436 20,500 1,517 Climbing FlightAware ADS-B
Fri 09:29:51 PM 27.7750 -80.5900 137° Southeast 384 442 21,400 699 Climbing FlightAware ADS-B
Fri 09:30:52 PM 27.7030 -80.5140 137° Southeast 392 451 21,700 1,214 Climbing FlightAware ADS-B
Fri 09:31:15 PM 27.6510 -80.4780 148° Southeast 407 468 23,100 1,862 Climbing FlightAware ADS-B
Fri 09:31:50 PM 27.5910 -80.4540 160° South 418 481 23,500 975 Climbing FlightAware ADS-B
Fri 09:32:35 PM 27.5090 -80.4220 161° South 415 478 24,400 1,000 Climbing FlightAware ADS-B
Fri 09:33:20 PM 27.4230 -80.3880 161° South 425 489 25,000 960 Climbing FlightAware ADS-B
Fri 09:33:50 PM 27.3670 -80.3650 160° South 428 493 25,600 1,120 Climbing FlightAware ADS-B
Fri 09:34:35 PM 27.2770 -80.3300 161° South 441 507 26,400 1,000 Climbing FlightAware ADS-B
Fri 09:35:14 PM 27.2020 -80.3000 160° South 446 513 27,000 759 Climbing FlightAware ADS-B
Fri 09:35:54 PM 27.1230 -80.2690 161° South 447 514 27,400 675 Climbing FlightAware ADS-B
Fri 09:36:34 PM 27.0430 -80.2370 160° South 462 532 27,900 825 Climbing FlightAware ADS-B
Fri 09:37:14 PM 26.9630 -80.2060 161° South 459 528 28,500 918 Climbing FlightAware ADS-B
Fri 09:37:59 PM 26.8690 -80.1690 161° South 462 532 29,200 988 Climbing FlightAware ADS-B
Fri 09:38:39 PM 26.7880 -80.1370 161° South 459 528 29,900 1,111 Climbing FlightAware ADS-B
Fri 09:39:20 PM 26.7050 -80.1040 160° South 457 526 30,700 918 Climbing FlightAware ADS-B
Fri 09:40:04 PM 26.6160 -80.0700 161° South 461 531 31,200 911 Climbing FlightAware ADS-B
Fri 09:40:39 PM 26.5430 -80.0410 160° South 459 528 31,900 1,040 Climbing FlightAware ADS-B
Fri 09:41:19 PM 26.4600 -80.0090 161° South 459 528 32,500 1,059 Climbing FlightAware ADS-B
Fri 09:42:04 PM 26.3700 -79.9740 161° South 460 529 33,400 847 Climbing FlightAware ADS-B
Fri 09:42:44 PM 26.2870 -79.9410 160° South 462 532 33,700 635 Climbing FlightAware ADS-B
Fri 09:43:29 PM 26.1970 -79.9060 161° South 460 529 34,300 837 Climbing FlightAware ADS-B
Fri 09:44:10 PM 26.1140 -79.8740 161° South 464 534 34,900 519 Climbing FlightAware ADS-B
Fri 09:44:50 PM 26.0320 -79.8430 161° South 462 532 35,000 71 Climbing FlightAware ADS-B
Fri 09:45:34 PM 25.9420 -79.8080 161° South 462 532 35,000  Level FlightAware ADS-B
Fri 09:46:15 PM 25.8600 -79.7760 161° South 464 534 35,000  Level FlightAware ADS-B
Fri 09:46:59 PM 25.7690 -79.7410 161° South 459 528 35,000  Level FlightAware ADS-B
Fri 09:47:40 PM 25.6860 -79.7090 161° South 461 531 35,000  Level FlightAware ADS-B
Fri 09:48:24 PM 25.5980 -79.6750 161° South 461 531 35,000  Level FlightAware ADS-B
Fri 09:49:04 PM 25.5130 -79.6420 161° South 461 531 35,000  Level FlightAware ADS-B
Fri 09:49:55 PM 25.4100 -79.6030 161° South 462 532 35,000  Level FlightAware ADS-B
Fri 09:50:34 PM 25.3280 -79.5710 161° South 461 531 35,000  Level FlightAware ADS-B
Fri 09:51:15 PM 25.2450 -79.5390 161° South 461 531 35,000  Level FlightAware ADS-B
Fri 09:51:49 PM 25.1740 -79.5120 161° South 460 529 35,000  Level FlightAware ADS-B
Fri 09:52:35 PM 25.0800 -79.4770 161° South 460 529 35,000 494 Level FlightAware ADS-B
Fri 09:53:14 PM 25.0020 -79.4470 161° South 456 525 35,700 714 Climbing FlightAware ADS-B
Fri 09:53:59 PM 24.9120 -79.4130 161° South 459 528 36,000 698 Climbing FlightAware ADS-B
Fri 09:54:40 PM 24.8300 -79.3820 161° South 445 512 36,700 565 Climbing FlightAware ADS-B
Fri 09:55:24 PM 24.7420 -79.3490 161° South 460 529 36,800 143 Climbing FlightAware ADS-B
Fri 09:56:04 PM 24.6610 -79.3180 161° South 456 525 36,900 160 Climbing FlightAware ADS-B
Fri 09:56:39 PM 24.5880 -79.2910 161° South 461 531 37,000 75 Climbing FlightAware ADS-B
Fri 09:57:24 PM 24.4970 -79.2560 161° South 458 527 37,000  Level FlightAware ADS-B
Fri 09:57:59 PM 24.4250 -79.2290 161° South 463 533 37,000  Level FlightAware ADS-B
Fri 09:58:44 PM 24.3350 -79.1950 161° South 459 528 37,000  Level FlightAware ADS-B
Fri 09:59:24 PM 24.2560 -79.1650 161° South 459 528 37,000  Level FlightAware ADS-B
Fri 10:00:39 PM 24.1140 -79.1120 161° South 463 533 37,000  Level FlightAware ADS-B
Fri 10:01:24 PM 24.0080 -79.0760 163° South 462 532 37,000  Level FlightAware ADS-B
Fri 10:02:09 PM 23.9120 -79.0590 171° South 470 541 37,000  Level FlightAware ADS-B
Fri 10:02:49 PM 23.8280 -79.0470 173° South 471 542 37,000  Level FlightAware ADS-B
Fri 10:03:47 PM 23.7140 -79.0320 173° South 471 542 37,000  Level FlightAware ADS-B
Fri 10:04:24 PM 23.6260 -79.0210 173° South 471 542 37,000  Level FlightAware ADS-B
Fri 10:05:12 PM 23.5380 -79.0090 173° South 471 542 37,000  Level FlightAware ADS-B
Fri 10:05:49 PM 23.4700 -79.0000 173° South 471 542 37,000  Level FlightAware ADS-B
Fri 10:06:39 PM 23.3240 -78.9820 174° South 472 543 37,000  Level FlightAware ADS-B
Fri 10:07:21 PM 23.2510 -78.9720 173° South 472 543 37,000  Level FlightAware ADS-B
Fri 10:07:59 PM 23.1540 -78.9600 174° South 483 556 37,000  Level FlightAware ADS-B
Fri 10:08:37 PM 23.0820 -78.9510 173° South 483 556 37,000  Level FlightAware ADS-B
Fri 10:09:25 PM 22.9920 -78.9390 173° South 483 556 37,000  Level FlightAware ADS-B
Fri 10:10:01 PM 22.9240 -78.9300 173° South 483 556 37,000  Level FlightAware ADS-B
Fri 10:10:37 PM 22.8560 -78.9200 172° South 483 556 37,000  Level FlightAware ADS-B
Fri 10:11:25 PM 22.7660 -78.9080 173° South 483 556 37,000  Level FlightAware ADS-B
Fri 10:12:13 PM 22.6750 -78.8960 173° South 483 556 37,000  Level FlightAware ADS-B
Fri 10:12:52 PM 22.6020 -78.8870 174° South 483 556 37,000  Level FlightAware ADS-B
Fri 10:13:29 PM 22.5320 -78.8770 172° South 483 556 37,000  Level FlightAware ADS-B
Fri 10:14:05 PM 22.4640 -78.8680 173° South 483 556 37,000  Level FlightAware ADS-B
Fri 10:14:52 PM 22.3750 -78.8570 173° South 483 556 37,000  Level FlightAware ADS-B
Fri 10:15:26 PM 22.3110 -78.8480 173° South 483 556 37,000  Level FlightAware ADS-B
Fri 10:16:02 PM 22.2430 -78.8390 173° South 483 556 37,000  Level FlightAware ADS-B
Fri 10:16:50 PM 22.1530 -78.8270 173° South 483 556 37,000  Level FlightAware ADS-B
Fri 10:17:27 PM 22.0830 -78.8180 173° South 483 556 37,000 -12 Level FlightAware ADS-B
Fri 10:20:00 PM 21.7848 -78.7385 165° South  Level FlightAware Approximate
Fri 10:21:00 PM 21.6684 -78.7053 165° South  Level FlightAware Approximate
Fri 10:22:00 PM 21.5520 -78.6721 165° South  Level FlightAware Approximate
Fri 10:23:00 PM 21.4356 -78.6390 165° South  Level FlightAware Approximate
Fri 10:24:00 PM 21.3191 -78.6059 165° South  Level FlightAware Approximate
Fri 10:25:00 PM 21.2027 -78.5730 165° South  Level FlightAware Approximate
Fri 10:26:00 PM 21.0863 -78.5400 165° South  Level FlightAware Approximate
Fri 10:27:00 PM 20.9698 -78.5071 165° South  Level FlightAware Approximate
Fri 10:28:00 PM 20.8534 -78.4743 165° South  Level FlightAware Approximate
Fri 10:29:00 PM 20.7369 -78.4415 165° South  Level FlightAware Approximate
Fri 10:30:00 PM 20.6204 -78.4088 165° South  Level FlightAware Approximate
Fri 10:31:00 PM 20.5040 -78.3761 165° South  Level FlightAware Approximate
Fri 10:32:00 PM 20.3875 -78.3434 165° South  Level FlightAware Approximate
Fri 10:33:00 PM 20.2710 -78.3108 165° South  Level FlightAware Approximate
Fri 10:34:00 PM 20.1545 -78.2783 165° South  Level FlightAware Approximate
Fri 10:35:00 PM 20.0380 -78.2458 165° South  Level FlightAware Approximate
Fri 10:36:00 PM 19.9215 -78.2134 165° South  Level FlightAware Approximate
Fri 10:37:00 PM 19.8050 -78.1809 165° South  Level FlightAware Approximate
Fri 10:38:00 PM 19.6886 -78.1484 165° South  Level FlightAware Approximate
Fri 10:39:00 PM 19.5721 -78.1160 165° South  Level FlightAware Approximate
Fri 10:40:00 PM 19.4556 -78.0836 165° South  Level FlightAware Approximate
Fri 10:41:00 PM 19.3391 -78.0513 165° South  Level FlightAware Approximate
Fri 10:42:00 PM 19.2225 -78.0191 165° South  Level FlightAware Approximate
Fri 10:43:00 PM 19.1060 -77.9868 165° South  Level FlightAware Approximate
Fri 10:44:00 PM 18.9895 -77.9547 165° South  Level FlightAware Approximate
Fri 10:45:00 PM 18.8730 -77.9225 165° South  Level FlightAware Approximate
Fri 10:46:00 PM 18.7565 -77.8904 165° South  Level FlightAware Approximate
Fri 10:47:00 PM 18.6399 -77.8584 165° South  Level FlightAware Approximate
Fri 10:48:00 PM 18.5234 -77.8264 165° South  Level FlightAware Approximate
Fri 10:49:00 PM 18.4068 -77.7945 165° South  Level FlightAware Approximate
Fri 10:50:00 PM 18.2903 -77.7626 165° South  Level FlightAware Approximate
Fri 10:51:00 PM 18.1737 -77.7307 165° South  Level FlightAware Approximate
Fri 10:52:00 PM 18.0571 -77.6989 165° South  Level FlightAware Approximate
Fri 10:53:00 PM 17.9406 -77.6671 165° South  Level FlightAware Approximate
Fri 10:54:00 PM 17.8240 -77.6353 165° South  Level FlightAware Approximate
Fri 10:55:00 PM 17.7075 -77.6032 165° South  Level FlightAware Approximate
Fri 10:56:00 PM 17.5911 -77.5711 165° South  Level FlightAware Approximate
Fri 10:57:00 PM 17.4746 -77.5390 165° South  Level FlightAware Approximate
Fri 10:58:00 PM 17.3581 -77.5069 165° South  Level FlightAware Approximate
Fri 10:59:00 PM 17.2416 -77.4749 165° South  Level FlightAware Approximate
Fri 11:00:00 PM 17.1252 -77.4429 165° South  Level FlightAware Approximate
Fri 11:01:00 PM 17.0087 -77.4110 165° South  Level FlightAware Approximate
Fri 11:02:00 PM 16.8922 -77.3791 165° South  Level FlightAware Approximate
Fri 11:03:00 PM 16.7757 -77.3473 165° South  Level FlightAware Approximate
Fri 11:04:00 PM 16.6591 -77.3155 165° South  Level FlightAware Approximate
Fri 11:05:00 PM 16.5426 -77.2837 165° South  Level FlightAware Approximate
Fri 11:06:00 PM 16.4261 -77.2520 165° South  Level FlightAware Approximate
Fri 11:07:00 PM 16.3096 -77.2203 165° South  Level FlightAware Approximate
Fri 11:08:00 PM 16.1931 -77.1886 165° South  Level FlightAware Approximate
Fri 11:09:00 PM 16.0765 -77.1570 165° South  Level FlightAware Approximate
Fri 11:10:00 PM 15.9600 -77.1254 165° South  Level FlightAware Approximate
Fri 11:11:00 PM 15.8435 -77.0939 165° South  Level FlightAware Approximate
Fri 11:12:00 PM 15.7269 -77.0624 165° South  Level FlightAware Approximate
Fri 11:13:00 PM 15.6104 -77.0309 165° South  Level FlightAware Approximate
Fri 11:14:00 PM 15.4938 -76.9995 165° South  Level FlightAware Approximate
Fri 11:15:00 PM 15.3772 -76.9680 165° South  Level FlightAware Approximate
Fri 11:16:00 PM 15.2607 -76.9367 165° South  Level FlightAware Approximate
Fri 11:17:00 PM 15.1441 -76.9053 165° South  Level FlightAware Approximate
Fri 11:18:00 PM 15.0275 -76.8741 165° South  Level FlightAware Approximate
Fri 11:19:00 PM 14.9098 -76.8483 169° South  Level FlightAware Approximate
Fri 11:20:00 PM 14.7916 -76.8242 169° South  Level FlightAware Approximate
Fri 11:21:00 PM 14.6735 -76.8001 169° South  Level FlightAware Approximate
Fri 11:22:00 PM 14.5553 -76.7760 169° South  Level FlightAware Approximate
Fri 11:23:00 PM 14.4372 -76.7520 169° South  Level FlightAware Approximate
Fri 11:24:00 PM 14.3190 -76.7280 169° South  Level FlightAware Approximate
Fri 11:25:00 PM 14.2008 -76.7040 169° South  Level FlightAware Approximate
Fri 11:26:00 PM 14.0827 -76.6801 169° South  Level FlightAware Approximate
Fri 11:27:00 PM 13.9645 -76.6562 169° South  Level FlightAware Approximate
Fri 11:28:00 PM 13.8463 -76.6323 169° South  Level FlightAware Approximate
Fri 11:29:00 PM 13.7282 -76.6084 169° South  Level FlightAware Approximate
Fri 11:30:00 PM 13.6100 -76.5846 169° South  Level FlightAware Approximate
Fri 11:31:00 PM 13.4918 -76.5608 169° South  Level FlightAware Approximate
Fri 11:32:00 PM 13.3736 -76.5369 169° South  Level FlightAware Approximate
Fri 11:33:00 PM 13.2555 -76.5132 169° South  Level FlightAware Approximate
Fri 11:34:00 PM 13.1373 -76.4894 169° South  Level FlightAware Approximate
Fri 11:35:00 PM 13.0191 -76.4657 169° South  Level FlightAware Approximate
Fri 11:36:00 PM 12.9009 -76.4420 169° South  Level FlightAware Approximate
Fri 11:37:00 PM 12.7827 -76.4183 169° South  Level FlightAware Approximate
Fri 11:38:00 PM 12.6645 -76.3946 169° South  Level FlightAware Approximate
Fri 11:39:00 PM 12.5463 -76.3710 169° South  Level FlightAware Approximate
Fri 11:40:00 PM 12.4281 -76.3474 169° South  Level FlightAware Approximate
Fri 11:41:00 PM 12.3099 -76.3238 169° South  Level FlightAware Approximate
Fri 11:42:00 PM 12.1917 -76.3002 169° South  Level FlightAware Approximate
Fri 11:43:00 PM 12.0735 -76.2766 169° South  Level FlightAware Approximate
Fri 11:43:08 PM 11.3630 -76.1460 169° South 436 502 36,000  Level FlightAware ADS-B
Fri 11:43:53 PM 11.2720 -76.1290 170° South 438 504 36,000  Level FlightAware ADS-B
Fri 11:44:00 PM 11.9553 -76.2531 169° South  Level FlightAware Approximate
Fri 11:44:44 PM 11.1710 -76.1080 168° South 439 505 36,000  Level FlightAware ADS-B
Fri 11:45:29 PM 11.0820 -76.0910 169° South 439 505 36,000  Level FlightAware ADS-B
Fri 11:46:09 PM 11.0010 -76.0750 169° South 438 504 36,000  Level FlightAware ADS-B
Fri 11:46:44 PM 10.9310 -76.0610 169° South 438 504 36,000 75 Level FlightAware ADS-B
Fri 11:47:29 PM 10.8410 -76.0430 169° South 438 504 36,100 424 Climbing FlightAware ADS-B
Fri 11:48:09 PM 10.7610 -76.0270 169° South 439 505 36,600 635 Climbing FlightAware ADS-B
Fri 11:48:54 PM 10.6750 -76.0100 169° South 432 497 37,000 282 Climbing FlightAware ADS-B
Fri 11:49:34 PM 10.5930 -75.9940 169° South 436 502 37,000  Level FlightAware ADS-B
Fri 11:50:19 PM 10.5030 -75.9760 169° South 436 502 37,000  Level FlightAware ADS-B
Fri 11:50:54 PM 10.4340 -75.9630 170° South 436 502 37,000  Level FlightAware ADS-B
Fri 11:51:39 PM 10.3440 -75.9450 169° South 440 506 37,000 71 Level FlightAware ADS-B
Fri 11:52:19 PM 10.2630 -75.9290 169° South 440 506 37,100  Climbing FlightAware ADS-B
Fri 11:52:54 PM 10.1940 -75.9150 169° South 438 504 37,000 -80 Descending FlightAware ADS-B
Fri 11:53:34 PM 10.1140 -75.8990 169° South 435 501 37,000  Level FlightAware ADS-B
Fri 11:54:14 PM 10.0360 -75.8840 169° South 434 499 37,000  Level FlightAware ADS-B
Fri 11:54:59 PM 9.9470 -75.8670 169° South 434 499 37,000  Level FlightAware ADS-B
Fri 11:55:44 PM 9.8600 -75.8490 168° South 433 498 37,000  Level FlightAware ADS-B
Fri 11:56:24 PM 9.7800 -75.8340 170° South 434 499 37,000  Level FlightAware ADS-B
Fri 11:57:04 PM 9.6990 -75.8180 169° South 435 501 37,000  Level FlightAware ADS-B
Fri 11:57:39 PM 9.6310 -75.8040 169° South 435 501 37,000  Level FlightAware ADS-B
Fri 11:58:19 PM 9.5590 -75.7900 169° South 437 503 37,000  Level FlightAware ADS-B
Fri 11:59:04 PM 9.4660 -75.7720 169° South 437 503 37,000  Level FlightAware ADS-B
Fri 11:59:39 PM 9.3960 -75.7580 169° South 437 503 37,000  Level FlightAware ADS-B
Sat 12:00:34 AM 9.2870 -75.7370 169° South 439 505 37,000  Level FlightAware ADS-B
Sat 12:01:14 AM 9.2030 -75.7200 169° South 438 504 37,000  Level FlightAware ADS-B
Sat 12:01:59 AM 9.1120 -75.7030 170° South 436 502 37,000  Level FlightAware ADS-B
Sat 12:02:41 AM 9.0480 -75.6900 169° South 436 502 37,000  Level FlightAware ADS-B
Sat 12:03:41 AM 8.9160 -75.6640 169° South 436 502 37,000  Level FlightAware ADS-B
Sat 12:04:19 AM 8.8520 -75.6520 170° South 436 502 37,000  Level FlightAware ADS-B
Sat 12:04:56 AM 8.7900 -75.6390 168° South 436 502 37,000  Level FlightAware ADS-B
Sat 12:05:36 AM 8.6910 -75.6200 169° South 437 503 37,000  Level FlightAware ADS-B
Sat 12:06:20 AM 8.6050 -75.6030 169° South 437 503 37,000  Level FlightAware ADS-B
Sat 12:07:06 AM 8.5020 -75.5830 169° South 440 506 37,000  Level FlightAware ADS-B
Sat 12:08:01 AM 8.3940 -75.5620 169° South 441 507 37,000  Level FlightAware ADS-B
Sat 12:08:36 AM 8.3200 -75.5480 169° South 442 509 37,000 63 Level FlightAware ADS-B
Sat 12:09:36 AM 8.2010 -75.5240 169° South 440 506 37,100  Climbing FlightAware ADS-B
Sat 12:10:55 AM 8.0530 -75.4960 169° South 435 501 37,000 -50 Descending FlightAware ADS-B
Sat 12:11:36 AM 7.9660 -75.4790 169° South 431 496 37,000 -70 Level FlightAware ADS-B
Sat 12:12:21 AM 7.8800 -75.4620 169° South 432 497 36,900 -62 Descending FlightAware ADS-B
Sat 12:13:13 AM 7.7860 -75.4440 169° South 435 501 36,900 56 Level FlightAware ADS-B
Sat 12:14:09 AM 7.6680 -75.4200 169° South 437 503 37,000 65 Climbing FlightAware ADS-B
Sat 12:14:46 AM 7.5900 -75.4040 169° South 435 501 37,000  Level FlightAware ADS-B
Sat 12:16:07 AM 7.4410 -75.3740 169° South 436 502 37,000  Level FlightAware ADS-B
Sat 12:16:51 AM 7.3370 -75.3530 169° South 441 507 37,000  Level FlightAware ADS-B
Sat 12:17:36 AM 7.2450 -75.3340 168° South 446 513 37,000  Level FlightAware ADS-B
Sat 12:18:11 AM 7.1740 -75.3200 169° South 450 518 37,000  Level FlightAware ADS-B
Sat 12:18:56 AM 7.0820 -75.3010 168° South 451 519 37,000  Level FlightAware ADS-B
Sat 12:19:36 AM 7.0030 -75.2850 169° South 428 493 37,000  Level FlightAware ADS-B
Sat 12:20:21 AM 6.9140 -75.2670 169° South 435 501 37,000  Level FlightAware ADS-B
Sat 12:21:01 AM 6.8340 -75.2510 169° South 440 506 37,000  Level FlightAware ADS-B
Sat 12:21:46 AM 6.7440 -75.2330 169° South 445 512 37,000  Level FlightAware ADS-B
Sat 12:22:26 AM 6.6630 -75.2160 168° South 446 513 37,000  Level FlightAware ADS-B
Sat 12:23:11 AM 6.5710 -75.1980 169° South 442 509 37,000  Level FlightAware ADS-B
Sat 12:23:51 AM 6.4920 -75.1820 169° South 437 503 37,000  Level FlightAware ADS-B
Sat 12:24:36 AM 6.4030 -75.1640 169° South 431 496 37,000 -706 Level FlightAware ADS-B
Sat 12:25:16 AM 6.3270 -75.1490 169° South 426 490 36,000 -2,329 Descending FlightAware ADS-B
Sat 12:26:01 AM 6.2360 -75.1300 168° South 439 505 33,700 -3,176 Descending FlightAware ADS-B
Sat 12:26:41 AM 6.1580 -75.1150 169° South 452 520 31,500 -1,714 Descending FlightAware ADS-B
Sat 12:27:18 AM 6.0930 -75.1020 169° South 452 520 31,500  Level FlightAware ADS-B
Sat 12:28:07 AM 6.0080 -75.0850 169° South 452 520 31,500  Level FlightAware ADS-B
Sat 12:28:43 AM 5.9450 -75.0730 169° South 452 520 31,500  Level FlightAware ADS-B
Sat 12:29:31 AM 5.8610 -75.0570 169° South 452 520 31,500  Level FlightAware ADS-B
Sat 12:29:55 AM 5.8200 -75.0490 169° South 452 520 31,500  Level FlightAware ADS-B
Sat 12:31:03 AM 5.7010 -75.0250 169° South 452 520 31,500  Level FlightAware ADS-B
Sat 12:31:39 AM 5.6380 -75.0130 169° South 452 520 31,500  Level FlightAware ADS-B
Sat 12:32:28 AM 5.5530 -74.9960 169° South 452 520 31,500  Level FlightAware ADS-B
Sat 12:33:04 AM 5.4900 -74.9840 169° South 452 520 31,500  Level FlightAware ADS-B
Sat 12:33:53 AM 5.4040 -74.9670 169° South 452 520 31,500  Level FlightAware ADS-B
Sat 12:34:29 AM 5.3410 -74.9550 169° South 452 520 31,500  Level FlightAware ADS-B
Sat 12:35:17 AM 5.2580 -74.9390 169° South 452 520 31,500  Level FlightAware ADS-B
Sat 12:35:54 AM 5.1930 -74.9260 169° South 452 520 31,500 -4,175 Level FlightAware ADS-B
Sat 12:38:00 AM 5.0593 -74.7057 124° Southeast  Level FlightAware Approximate
Sat 12:39:00 AM 4.9937 -74.6043 123° Southeast  Level FlightAware Approximate
Sat 12:40:00 AM 4.9288 -74.5025 123° Southeast  Level FlightAware Approximate
Sat 12:40:03 AM 4.9870 -74.4450 123° Southeast 257 296 11,600  Level FlightAware ADS-B
Sat 12:40:44 AM 4.9500 -74.4120 138° Southeast 253 291 11,600  Level FlightAware ADS-B
Sat 12:41:27 AM 4.9130 -74.3810 140° Southeast 223 257 11,600  Level FlightAware ADS-B
Sat 12:42:11 AM 4.8790 -74.3510 139° Southeast 220 253 11,600  Level FlightAware ADS-B
Sat 12:42:51 AM 4.8490 -74.3250 139° Southeast 206 237 11,600 -154 Level FlightAware ADS-B
Sat 12:43:29 AM 4.8250 -74.3000 134° Southeast 189 217 11,400 -698 Descending FlightAware ADS-B
Sat 12:44:17 AM 4.8000 -74.2670 127° Southeast 188 216 10,600 -940 Descending FlightAware ADS-B
Sat 12:44:52 AM 4.7830 -74.2440 127° Southeast 187 215 10,100 -857 Descending FlightAware ADS-B
Sat 12:45:27 AM 4.7660 -74.2220 128° Southeast 177 204 9,600 -500 Descending FlightAware ADS-B
Sat 12:45:52 AM 4.7560 -74.2080 126° Southeast 177 204 9,600  Level FlightAware ADS-B
Sat 12:46:29 AM 4.7400 -74.1880 129° Southeast 177 204 9,600  Level FlightAware ADS-B
Sat 12:46:41 AM 4.7350 -74.1810 126° Southeast 177 204 9,600  Level FlightAware ADS-B
Sat 12:47:05 AM 4.7250 -74.1680 128° Southeast 177 204 9,600  Level FlightAware ADS-B
Sat 12:47:49 AM 4.7050 -74.1410 127° Southeast 94 108 -13,091 Descending FlightAware ADS-B
Sat 12:48:16 AM 4.6990 -74.1330 127° Southeast 94 108  Level FlightAware ADS-B
Sat 12:49:07 AM 4.6990 -74.1350 270° West 32 37  Level FlightAware ADS-B
Sat 12:49:21 AM 4.6990 -74.1360 270° West 24 28  Level FlightAware ADS-B
Sat 12:50:04 AM 4.6990 -74.1380 270° West 15 17  Level FlightAware ADS-B
Sat 12:52:00 AM 4.7000 -74.1333 117° Southeast  Level FlightAware Approximate
Sat 12:52:01 AM 4.6990 -74.1410 117° Southeast  Level FlightAware ADS-B
Sat 12:54:00 AM 4.7000 -74.1333 117° Southeast  Level FlightAware Approximate
Sat 12:55:00 AM 4.7016 -74.1469 117° Southeast  Level Estimated
Sat 12:56:00 AM 4.7016 -74.1469 117° Southeast  Level Estimated

Login

Don't have an account? Register now (free) for customized features, flight alerts, and more!